Kingaroy, Australia
Current Conditions -  °F | °C
As of 1:00 PM on Saturday 22 Nov 2014 (Local Time) from YBOK Reporting Station
Clear Clear  
Wind Chill: 95°   Ceiling: Unl
Heat Index: 96°   Visibility: 6mi
Dew Point: 63°   Wind: 7mph
Humidity: 34%   Direction: 330°NNW
Pressure: 29.91"   Gusts: NA
Location:  26.54°S, 151.84°E
Report Text: YBOK 220300Z AUTO 33006KT 9999 // NCD 35/17 Q1013
Loading
Personal Weather Stations






























Interactive Weather Map New forecast layout! Learn more

10-Day Weather Forecast

Advertisements
Track Severe Weather on mobile